createdAt,value
2018-01-08T00:01:37.896Z,-2.20
2018-01-08T00:04:05.511Z,-2.22
2018-01-08T00:06:33.024Z,-2.22
2018-01-08T00:09:00.584Z,-2.23
2018-01-08T00:11:28.159Z,-2.22
2018-01-08T00:13:55.688Z,-2.25
2018-01-08T00:16:23.266Z,-2.30
2018-01-08T00:18:50.822Z,-2.33
2018-01-08T00:21:18.388Z,-2.34
2018-01-08T00:23:45.933Z,-2.30
2018-01-08T00:26:13.734Z,-2.27
2018-01-08T00:28:41.300Z,-2.31
2018-01-08T00:31:08.902Z,-2.29
2018-01-08T00:33:36.453Z,-2.28
2018-01-08T00:36:04.098Z,-2.28
2018-01-08T00:38:31.674Z,-2.32
2018-01-08T00:40:59.230Z,-2.32
2018-01-08T00:43:26.834Z,-2.33
2018-01-08T00:45:54.390Z,-2.31
2018-01-08T00:48:21.920Z,-2.38
2018-01-08T00:50:49.512Z,-2.37
2018-01-08T00:53:17.062Z,-2.32
2018-01-08T00:55:44.609Z,-2.37
2018-01-08T00:58:12.180Z,-2.34
2018-01-08T01:00:39.816Z,-2.36
2018-01-08T01:03:07.420Z,-2.39
2018-01-08T01:05:35.027Z,-2.34
2018-01-08T01:08:02.577Z,-2.34
2018-01-08T01:10:30.161Z,-2.33
2018-01-08T01:12:57.710Z,-2.37
2018-01-08T01:15:25.286Z,-2.37
2018-01-08T01:17:52.858Z,-2.40
2018-01-08T01:20:20.538Z,-2.41
2018-01-08T01:22:48.145Z,-2.42
2018-01-08T01:25:15.696Z,-2.46
2018-01-08T01:27:43.216Z,-2.44
2018-01-08T01:30:10.804Z,-2.44
2018-01-08T01:32:38.326Z,-2.43
2018-01-08T01:35:05.868Z,-2.42
2018-01-08T01:37:33.475Z,-2.49
2018-01-08T01:40:01.016Z,-2.48
2018-01-08T01:42:28.527Z,-2.51
2018-01-08T01:44:56.095Z,-2.43
2018-01-08T01:47:23.613Z,-2.46
2018-01-08T01:49:51.144Z,-2.43
2018-01-08T01:52:18.711Z,-2.47
2018-01-08T01:54:46.322Z,-2.50
2018-01-08T01:57:13.872Z,-2.47
2018-01-08T01:59:41.437Z,-2.48
2018-01-08T02:02:09.023Z,-2.48
2018-01-08T02:04:36.542Z,-2.46
2018-01-08T02:07:04.100Z,-2.51
2018-01-08T02:09:31.658Z,-2.48
2018-01-08T02:11:59.196Z,-2.47
2018-01-08T02:14:26.939Z,-2.51
2018-01-08T02:16:54.538Z,-2.52
2018-01-08T02:19:22.084Z,-2.51
2018-01-08T02:21:49.644Z,-2.52
2018-01-08T02:24:17.181Z,-2.50
2018-01-08T02:26:44.799Z,-2.49
2018-01-08T02:29:12.365Z,-2.48
2018-01-08T02:31:39.928Z,-2.49
2018-01-08T02:34:07.463Z,-2.50
2018-01-08T02:36:35.044Z,-2.51
2018-01-08T02:39:02.604Z,-2.48
2018-01-08T02:41:30.143Z,-2.52
2018-01-08T02:43:57.819Z,-2.55
2018-01-08T02:46:25.378Z,-2.49
2018-01-08T02:48:52.919Z,-2.51
2018-01-08T02:51:20.440Z,-2.57
2018-01-08T02:53:48.017Z,-2.55
2018-01-08T02:56:15.583Z,-2.54
2018-01-08T02:58:43.165Z,-2.54
2018-01-08T03:01:10.712Z,-2.55
2018-01-08T03:03:38.245Z,-2.54
2018-01-08T03:06:05.808Z,-2.52
2018-01-08T03:08:33.417Z,-2.52
2018-01-08T03:11:00.927Z,-2.56
2018-01-08T03:13:28.435Z,-2.55
2018-01-08T03:15:56.037Z,-2.58
2018-01-08T03:18:23.554Z,-2.55
2018-01-08T03:20:51.083Z,-2.53
2018-01-08T03:23:18.789Z,-2.58
2018-01-08T03:25:46.332Z,-2.58
2018-01-08T03:28:13.842Z,-2.56
2018-01-08T03:30:41.458Z,-2.54
2018-01-08T03:33:09.018Z,-2.56
2018-01-08T03:35:36.665Z,-2.58
2018-01-08T03:38:04.277Z,-2.60
2018-01-08T03:40:31.894Z,-2.58
2018-01-08T03:42:59.450Z,-2.57
2018-01-08T03:45:27.031Z,-2.56
2018-01-08T03:47:54.577Z,-2.57
2018-01-08T03:50:22.116Z,-2.57
2018-01-08T03:52:49.759Z,-2.56
2018-01-08T03:55:17.369Z,-2.56
2018-01-08T03:57:44.972Z,-2.59
2018-01-08T04:00:12.533Z,-2.57
2018-01-08T04:02:40.131Z,-2.59
2018-01-08T04:05:07.643Z,-2.55
2018-01-08T04:07:35.513Z,-2.61
2018-01-08T04:10:03.065Z,-2.57
2018-01-08T04:12:30.614Z,-2.54
2018-01-08T04:14:58.224Z,-2.57
2018-01-08T04:17:25.817Z,-2.55
2018-01-08T04:19:53.360Z,-2.54
2018-01-08T04:22:20.914Z,-2.56
2018-01-08T04:24:48.436Z,-2.53
2018-01-08T04:27:15.978Z,-2.52
2018-01-08T04:29:43.595Z,-2.48
2018-01-08T04:32:11.158Z,-2.49
2018-01-08T04:34:38.667Z,-2.51
2018-01-08T04:37:06.238Z,-2.47
2018-01-08T04:39:33.762Z,-2.49
2018-01-08T04:42:01.353Z,-2.48
2018-01-08T04:44:28.877Z,-2.42
2018-01-08T04:46:56.387Z,-2.41
2018-01-08T04:49:23.953Z,-2.39
2018-01-08T04:51:51.606Z,-2.37
2018-01-08T04:54:19.218Z,-2.37
2018-01-08T04:56:46.764Z,-2.32
2018-01-08T04:59:14.282Z,-2.35
2018-01-08T05:01:41.872Z,-2.33
2018-01-08T05:04:09.429Z,-2.37
2018-01-08T05:06:36.976Z,-2.30
2018-01-08T05:09:04.568Z,-2.32
2018-01-08T05:11:32.108Z,-2.27
2018-01-08T05:13:59.685Z,-2.28
2018-01-08T05:16:27.285Z,-2.28
2018-01-08T05:18:54.832Z,-2.28
2018-01-08T05:21:22.399Z,-2.22
2018-01-08T05:23:49.921Z,-2.19
2018-01-08T05:26:17.575Z,-2.21
2018-01-08T05:28:45.180Z,-2.27
2018-01-08T05:31:12.724Z,-2.33
2018-01-08T05:33:40.328Z,-2.32
2018-01-08T05:36:07.888Z,-2.32
2018-01-08T05:38:35.448Z,-2.33
2018-01-08T05:41:03.016Z,-2.38
2018-01-08T05:43:30.575Z,-2.38
2018-01-08T05:45:58.148Z,-2.34
2018-01-08T05:48:25.663Z,-2.33
2018-01-08T05:50:53.216Z,-2.31
2018-01-08T05:53:20.754Z,-2.30
2018-01-08T05:55:48.293Z,-2.30
2018-01-08T05:58:15.844Z,-2.31
2018-01-08T06:00:43.550Z,-2.35
2018-01-08T06:03:11.156Z,-2.34
2018-01-08T06:05:39.017Z,-2.31
2018-01-08T06:08:06.588Z,-2.37
2018-01-08T06:10:34.141Z,-2.33
2018-01-08T06:13:01.746Z,-2.34
2018-01-08T06:15:29.269Z,-2.34
2018-01-08T06:17:56.906Z,-2.33
2018-01-08T06:20:24.539Z,-2.38
2018-01-08T06:22:52.088Z,-2.32
2018-01-08T06:25:19.774Z,-2.34
2018-01-08T06:27:47.288Z,-2.26
2018-01-08T06:30:14.809Z,-2.29
2018-01-08T06:32:42.408Z,-2.26
2018-01-08T06:35:09.923Z,-2.28
2018-01-08T06:37:37.617Z,-2.28
2018-01-08T06:40:05.215Z,-2.25
2018-01-08T06:42:32.794Z,-2.25
2018-01-08T06:45:00.367Z,-2.31
2018-01-08T06:47:27.931Z,-2.27
2018-01-08T06:49:55.446Z,-2.29
2018-01-08T06:52:23.035Z,-2.33
2018-01-08T06:54:50.546Z,-2.27
2018-01-08T06:57:18.130Z,-2.29
2018-01-08T06:59:45.680Z,-2.28
2018-01-08T07:02:13.289Z,-2.27
2018-01-08T07:04:40.846Z,-2.30
2018-01-08T07:07:08.400Z,-2.28
2018-01-08T07:09:35.944Z,-2.25
2018-01-08T07:12:03.497Z,-2.26
2018-01-08T07:14:31.142Z,-2.27
2018-01-08T07:16:58.668Z,-2.29
2018-01-08T07:19:26.329Z,-2.29
2018-01-08T07:21:53.894Z,-2.33
2018-01-08T07:24:21.507Z,-2.28
2018-01-08T07:26:49.085Z,-2.32
2018-01-08T07:29:16.666Z,-2.25
2018-01-08T07:31:44.216Z,-2.28
2018-01-08T07:34:11.813Z,-2.24
2018-01-08T07:36:39.337Z,-2.24
2018-01-08T07:39:07.084Z,-2.28
2018-01-08T07:41:34.631Z,-2.22
2018-01-08T07:44:02.227Z,-2.22
2018-01-08T07:46:29.747Z,-2.20
2018-01-08T07:48:57.471Z,-2.19
2018-01-08T07:51:25.025Z,-2.19
2018-01-08T07:53:52.594Z,-2.22
2018-01-08T07:56:20.296Z,-2.16
2018-01-08T07:58:47.950Z,-2.16
2018-01-08T08:01:15.488Z,-2.12
2018-01-08T08:03:43.069Z,-2.14
2018-01-08T08:06:10.611Z,-2.12
2018-01-08T08:08:38.356Z,-2.04
2018-01-08T08:11:05.880Z,-2.03
2018-01-08T08:13:33.414Z,-2.00
2018-01-08T08:16:00.952Z,-2.00
2018-01-08T08:18:28.468Z,-1.93
2018-01-08T08:20:56.039Z,-1.91
2018-01-08T08:23:23.593Z,-1.90
2018-01-08T08:25:51.172Z,-1.87
2018-01-08T08:28:18.684Z,-1.85
2018-01-08T08:30:46.270Z,-1.77
2018-01-08T08:33:13.817Z,-1.78
2018-01-08T08:35:41.404Z,-1.73
2018-01-08T08:38:08.926Z,-1.72
2018-01-08T08:40:36.460Z,-1.67
2018-01-08T08:43:04.154Z,-1.65
2018-01-08T08:45:31.714Z,-1.61
2018-01-08T08:47:59.222Z,-1.58
2018-01-08T08:50:26.814Z,-1.62
2018-01-08T08:52:54.362Z,-1.56
2018-01-08T08:55:21.968Z,-1.49
2018-01-08T08:57:49.491Z,-1.49
2018-01-08T09:00:17.022Z,-1.48
2018-01-08T09:02:44.621Z,-1.44
2018-01-08T09:05:12.177Z,-1.42
2018-01-08T09:07:39.699Z,-1.46
2018-01-08T09:10:07.277Z,-1.35
2018-01-08T09:12:34.877Z,-1.33
2018-01-08T09:15:02.400Z,-1.31
2018-01-08T09:17:29.941Z,-1.29
2018-01-08T09:19:57.562Z,-1.23
2018-01-08T09:22:25.125Z,-1.28
2018-01-08T09:24:52.672Z,-1.16
2018-01-08T09:27:20.244Z,-1.13
2018-01-08T09:29:47.855Z,-1.09
2018-01-08T09:32:15.394Z,-1.06
2018-01-08T09:34:42.939Z,-1.07
2018-01-08T09:37:10.563Z,-0.97
2018-01-08T09:39:38.120Z,-0.96
2018-01-08T09:42:05.644Z,-0.92
2018-01-08T09:44:33.241Z,-0.82
2018-01-08T09:47:00.757Z,-0.79
2018-01-08T09:49:28.306Z,-0.76
2018-01-08T09:51:55.912Z,-0.66
2018-01-08T09:56:50.224Z,-0.61
2018-01-08T09:59:17.767Z,-0.53
2018-01-08T10:01:45.336Z,-0.44
2018-01-08T10:04:24.830Z,-0.39
2018-01-08T10:07:04.461Z,-0.39
2018-01-08T10:09:43.784Z,-0.34
2018-01-08T10:12:23.240Z,-0.25
2018-01-08T10:15:02.848Z,-0.20
2018-01-08T10:17:42.216Z,-0.11
2018-01-08T10:20:09.796Z,-0.04
2018-01-08T10:22:37.336Z,0.02
2018-01-08T10:25:04.853Z,0.09
2018-01-08T10:27:32.442Z,0.12
2018-01-08T10:30:00.030Z,0.11
2018-01-08T10:32:27.633Z,0.22
2018-01-08T10:34:55.309Z,0.28
2018-01-08T10:37:22.906Z,0.31
2018-01-08T10:39:50.420Z,0.39
2018-01-08T10:42:23.652Z,0.45
2018-01-08T10:44:57.040Z,0.50
2018-01-08T10:47:30.296Z,0.52
2018-01-08T10:50:03.479Z,0.62
2018-01-08T10:52:31.073Z,0.64
2018-01-08T10:55:07.339Z,0.70
2018-01-08T10:57:34.864Z,0.83
2018-01-08T11:00:02.416Z,0.85
2018-01-08T11:02:35.661Z,0.88
2018-01-08T11:05:03.196Z,0.95
2018-01-08T11:07:30.791Z,0.96
2018-01-08T11:09:58.342Z,1.03
2018-01-08T11:12:25.902Z,1.10
2018-01-08T11:14:53.448Z,1.09
2018-01-08T11:17:21.022Z,1.16
2018-01-08T11:19:48.590Z,1.23
2018-01-08T11:22:16.118Z,1.30
2018-01-08T11:24:43.689Z,1.30
2018-01-08T11:27:11.255Z,1.36
2018-01-08T11:29:38.779Z,1.43
2018-01-08T11:32:06.455Z,1.42
2018-01-08T11:34:34.123Z,1.52
2018-01-08T11:37:01.690Z,1.51
2018-01-08T11:39:29.236Z,1.65
2018-01-08T11:41:56.865Z,1.58
2018-01-08T11:44:24.412Z,1.67
2018-01-08T11:46:51.976Z,1.74
2018-01-08T11:49:19.594Z,1.78
2018-01-08T11:51:47.133Z,1.89
2018-01-08T11:54:14.692Z,1.86
2018-01-08T11:56:42.243Z,1.84
2018-01-08T11:59:09.845Z,1.96
2018-01-08T12:01:37.514Z,1.98
2018-01-08T12:04:05.055Z,2.02
2018-01-08T12:06:32.786Z,2.05
2018-01-08T12:09:00.379Z,2.05
2018-01-08T12:11:27.944Z,2.11
2018-01-08T12:13:55.518Z,2.10
2018-01-08T12:16:23.057Z,2.13
2018-01-08T12:18:50.579Z,2.17
2018-01-08T12:21:18.128Z,2.12
2018-01-08T12:23:45.736Z,2.16
2018-01-08T12:26:13.272Z,2.18
2018-01-08T12:28:40.791Z,2.26
2018-01-08T12:31:08.385Z,2.28
2018-01-08T12:33:35.952Z,2.36
2018-01-08T12:36:03.519Z,2.35
2018-01-08T12:38:31.069Z,2.37
2018-01-08T12:40:58.591Z,2.37
2018-01-08T12:43:26.148Z,2.36
2018-01-08T12:45:53.734Z,2.33
2018-01-08T12:48:21.272Z,2.43
2018-01-08T12:50:48.873Z,2.42
2018-01-08T12:53:16.534Z,2.42
2018-01-08T12:55:44.136Z,2.44
2018-01-08T12:58:11.652Z,2.54
2018-01-08T13:00:39.232Z,2.45
2018-01-08T13:03:06.800Z,2.59
2018-01-08T13:05:34.355Z,2.45
2018-01-08T13:08:01.944Z,2.54
2018-01-08T13:10:29.475Z,2.57
2018-01-08T13:12:57.072Z,2.60
2018-01-08T13:15:24.641Z,2.56
2018-01-08T13:17:52.167Z,2.55
2018-01-08T13:20:19.985Z,2.65
2018-01-08T13:22:47.554Z,2.71
2018-01-08T13:25:15.157Z,2.65
2018-01-08T13:27:42.717Z,2.64
2018-01-08T13:30:10.476Z,2.63
2018-01-08T13:32:38.040Z,2.55
2018-01-08T13:35:05.635Z,2.48
2018-01-08T13:37:33.358Z,2.48
2018-01-08T13:40:00.936Z,2.50
2018-01-08T13:42:28.756Z,2.53
2018-01-08T13:44:56.432Z,2.44
2018-01-08T13:47:24.212Z,2.51
2018-01-08T13:49:51.774Z,2.48
2018-01-08T13:52:19.357Z,2.44
2018-01-08T13:54:47.095Z,2.53
2018-01-08T13:57:14.798Z,2.53
2018-01-08T13:59:42.484Z,2.49
2018-01-08T14:02:10.069Z,2.43
2018-01-08T14:04:37.625Z,2.47
2018-01-08T14:07:08.072Z,2.48
2018-01-08T14:09:35.792Z,2.43
2018-01-08T14:12:03.516Z,2.49
2018-01-08T14:14:31.033Z,2.42
2018-01-08T14:16:58.637Z,2.36
2018-01-08T14:19:26.551Z,2.42
2018-01-08T14:21:54.100Z,2.38
2018-01-08T14:24:21.635Z,2.38
2018-01-08T14:26:49.172Z,2.41
2018-01-08T14:29:16.732Z,2.41
2018-01-08T14:31:44.333Z,2.40
2018-01-08T14:34:11.860Z,2.32
2018-01-08T14:36:39.553Z,2.36
2018-01-08T14:39:07.104Z,2.39
2018-01-08T14:41:34.637Z,2.30
2018-01-08T14:44:03.261Z,2.26
2018-01-08T14:46:30.871Z,2.16
2018-01-08T14:48:58.504Z,2.14
2018-01-08T14:51:26.044Z,2.07
2018-01-08T14:53:53.602Z,2.13
2018-01-08T14:56:21.176Z,2.12
2018-01-08T14:58:48.755Z,1.99
2018-01-08T15:01:16.316Z,1.97
2018-01-08T15:03:44.090Z,1.91
2018-01-08T15:06:11.818Z,1.90
2018-01-08T15:08:39.405Z,1.85
2018-01-08T15:11:06.986Z,1.82
2018-01-08T15:13:34.569Z,1.75
2018-01-08T15:16:02.253Z,1.73
2018-01-08T15:18:29.833Z,1.60
2018-01-08T15:20:57.407Z,1.62
2018-01-08T15:23:24.952Z,1.60
2018-01-08T15:25:52.488Z,1.59
2018-01-08T15:28:20.024Z,1.52
2018-01-08T15:30:47.580Z,1.58
2018-01-08T15:33:15.180Z,1.52
2018-01-08T15:35:42.740Z,1.43
2018-01-08T15:38:10.282Z,1.43
2018-01-08T15:40:37.897Z,1.42
2018-01-08T15:43:05.441Z,1.41
2018-01-08T15:45:32.983Z,1.32
2018-01-08T15:48:00.568Z,1.28
2018-01-08T15:50:28.079Z,1.25
2018-01-08T15:52:55.593Z,1.21
2018-01-08T15:55:23.156Z,1.32
2018-01-08T15:57:50.792Z,1.28
2018-01-08T16:00:18.423Z,1.20
2018-01-08T16:02:46.045Z,1.16
2018-01-08T16:05:13.580Z,1.07
2018-01-08T16:07:41.186Z,1.13
2018-01-08T16:10:08.741Z,1.08
2018-01-08T16:12:36.282Z,1.09
2018-01-08T16:15:03.848Z,1.14
2018-01-08T16:17:31.429Z,1.06
2018-01-08T16:19:58.934Z,1.12
2018-01-08T16:22:26.510Z,1.06
2018-01-08T16:24:54.020Z,1.07
2018-01-08T16:27:21.562Z,0.96
2018-01-08T16:29:49.076Z,1.01
2018-01-08T16:32:16.652Z,1.04
2018-01-08T16:34:44.201Z,1.03
2018-01-08T16:37:11.722Z,0.92
2018-01-08T16:39:39.426Z,0.99
2018-01-08T16:42:07.006Z,0.87
2018-01-08T16:44:34.548Z,0.87
2018-01-08T16:47:02.117Z,0.88
2018-01-08T16:49:29.674Z,0.85
2018-01-08T16:51:57.189Z,0.91
2018-01-08T16:54:24.734Z,0.88
2018-01-08T16:56:52.316Z,0.86
2018-01-08T16:59:19.823Z,0.88
2018-01-08T17:01:47.384Z,0.89
2018-01-08T17:04:15.925Z,0.82
2018-01-08T17:06:43.540Z,0.86
2018-01-08T17:09:11.046Z,0.83
2018-01-08T17:11:38.560Z,0.80
2018-01-08T17:14:06.139Z,0.80
2018-01-08T17:16:33.687Z,0.79
2018-01-08T17:19:01.241Z,0.75
2018-01-08T17:21:28.884Z,0.78
2018-01-08T17:23:56.697Z,0.91
2018-01-08T17:26:24.256Z,0.86
2018-01-08T17:28:51.809Z,0.88
2018-01-08T17:31:19.394Z,0.86
2018-01-08T17:33:47.032Z,0.81
2018-01-08T17:36:14.745Z,0.75
2018-01-08T17:38:42.278Z,0.79
2018-01-08T17:41:09.838Z,0.85
2018-01-08T17:43:37.442Z,0.81
2018-01-08T17:46:05.027Z,0.85
2018-01-08T17:48:32.604Z,0.78
2018-01-08T17:51:00.280Z,0.79
2018-01-08T17:53:28.003Z,0.79
2018-01-08T17:55:55.599Z,0.73
2018-01-08T17:58:23.310Z,0.81
2018-01-08T18:00:50.823Z,0.79
2018-01-08T18:03:18.457Z,0.80
2018-01-08T18:05:45.976Z,0.81
2018-01-08T18:08:13.705Z,0.79
2018-01-08T18:10:41.358Z,0.74
2018-01-08T18:13:08.941Z,0.60
2018-01-08T18:15:36.623Z,0.60
2018-01-08T18:18:04.300Z,0.72
2018-01-08T18:20:31.865Z,0.61
2018-01-08T18:22:59.408Z,0.64
2018-01-08T18:25:27.020Z,0.54
2018-01-08T18:27:54.608Z,0.60
2018-01-08T18:30:22.186Z,0.56
2018-01-08T18:32:49.728Z,0.54
2018-01-08T18:35:17.320Z,0.56
2018-01-08T18:37:44.867Z,0.51
2018-01-08T18:40:12.390Z,0.47
2018-01-08T18:42:39.953Z,0.37
2018-01-08T18:45:07.476Z,0.37
2018-01-08T18:47:35.020Z,0.36
2018-01-08T18:50:02.569Z,0.36
2018-01-08T18:52:30.205Z,0.35
2018-01-08T18:54:57.727Z,0.35
2018-01-08T18:57:25.472Z,0.36
2018-01-08T18:59:53.043Z,0.34
2018-01-08T19:02:20.580Z,0.22
2018-01-08T19:04:48.144Z,0.32
2018-01-08T19:07:15.717Z,0.26
2018-01-08T19:09:43.290Z,0.34
2018-01-08T19:12:10.840Z,0.33
2018-01-08T19:14:38.540Z,0.30
2018-01-08T19:17:06.116Z,0.29
2018-01-08T19:19:33.834Z,0.29
2018-01-08T19:22:01.457Z,0.30
2018-01-08T19:24:29.021Z,0.23
2018-01-08T19:26:56.547Z,0.26
2018-01-08T19:29:24.223Z,0.30
2018-01-08T19:31:51.772Z,0.28
2018-01-08T19:34:19.323Z,0.27
2018-01-08T19:36:46.885Z,0.31
2018-01-08T19:39:14.578Z,0.29
2018-01-08T19:41:42.137Z,0.28
2018-01-08T19:44:09.722Z,0.25
2018-01-08T19:46:37.341Z,0.19
2018-01-08T19:49:04.880Z,0.25
2018-01-08T19:51:32.591Z,0.27
2018-01-08T19:54:00.142Z,0.24
2018-01-08T19:56:27.722Z,0.30
2018-01-08T19:58:55.270Z,0.20
2018-01-08T20:01:22.824Z,0.17
2018-01-08T20:03:50.667Z,0.22
2018-01-08T20:06:18.220Z,0.23
2018-01-08T20:08:45.807Z,0.20
2018-01-08T20:11:13.386Z,0.22
2018-01-08T20:13:41.053Z,0.24
2018-01-08T20:16:08.670Z,0.24
2018-01-08T20:18:36.311Z,0.20
2018-01-08T20:21:03.889Z,0.26
2018-01-08T20:23:31.523Z,0.24
2018-01-08T20:25:59.124Z,0.39
2018-01-08T20:28:26.644Z,0.44
2018-01-08T20:30:54.242Z,0.47
2018-01-08T20:33:21.801Z,0.49
2018-01-08T20:35:49.391Z,0.56
2018-01-08T20:38:16.942Z,0.56
2018-01-08T20:40:44.488Z,0.61
2018-01-08T20:43:12.059Z,0.68
2018-01-08T20:45:39.623Z,0.69
2018-01-08T20:48:07.135Z,0.71
2018-01-08T20:50:34.700Z,0.70
2018-01-08T20:53:02.214Z,0.79
2018-01-08T20:55:29.765Z,0.84
2018-01-08T20:57:57.342Z,0.82
2018-01-08T21:00:24.944Z,0.90
2018-01-08T21:02:52.497Z,0.78
2018-01-08T21:05:20.092Z,0.95
2018-01-08T21:07:47.633Z,0.96
2018-01-08T21:10:15.176Z,0.94
2018-01-08T21:12:42.798Z,1.05
2018-01-08T21:15:10.413Z,1.01
2018-01-08T21:17:37.924Z,0.96
2018-01-08T21:20:05.542Z,0.95
2018-01-08T21:22:33.190Z,0.72
2018-01-08T21:25:00.745Z,0.76
2018-01-08T21:27:28.312Z,0.69
2018-01-08T21:29:55.865Z,0.67
2018-01-08T21:32:23.408Z,0.67
2018-01-08T21:34:50.941Z,0.62
2018-01-08T21:37:18.542Z,0.63
2018-01-08T21:39:46.161Z,0.64
2018-01-08T21:42:13.701Z,0.56
2018-01-08T21:44:41.302Z,0.59
2018-01-08T21:47:08.888Z,0.55
2018-01-08T21:49:36.452Z,0.55
2018-01-08T21:52:03.978Z,0.54
2018-01-08T21:54:31.522Z,0.53
2018-01-08T21:56:59.060Z,0.47
2018-01-08T21:59:26.624Z,0.49
2018-01-08T22:01:54.231Z,0.47
2018-01-08T22:04:22.630Z,0.45
2018-01-08T22:06:50.165Z,0.44
2018-01-08T22:09:17.731Z,0.44
2018-01-08T22:11:45.235Z,0.40
2018-01-08T22:14:12.765Z,0.47
2018-01-08T22:16:40.398Z,0.50
2018-01-08T22:19:08.095Z,0.49
2018-01-08T22:21:35.609Z,0.49
2018-01-08T22:24:03.200Z,0.48
2018-01-08T22:26:30.753Z,0.42
2018-01-08T22:28:58.260Z,0.45
2018-01-08T22:31:25.786Z,0.43
2018-01-08T22:33:53.329Z,0.41
2018-01-08T22:36:20.973Z,0.44
2018-01-08T22:38:48.509Z,0.47
2018-01-08T22:41:16.121Z,0.41
2018-01-08T22:43:43.640Z,0.48
2018-01-08T22:46:11.174Z,0.53
2018-01-08T22:48:38.738Z,0.43
2018-01-08T22:51:06.304Z,0.41
2018-01-08T22:53:33.922Z,0.44
2018-01-08T22:56:01.536Z,0.26
2018-01-08T22:58:29.121Z,0.32
2018-01-08T23:00:56.677Z,0.35
2018-01-08T23:03:24.215Z,0.35
2018-01-08T23:05:51.744Z,0.37
2018-01-08T23:08:19.308Z,0.27
2018-01-08T23:10:46.847Z,0.25
2018-01-08T23:13:14.499Z,0.31
2018-01-08T23:15:42.011Z,0.29
2018-01-08T23:18:09.565Z,0.22
2018-01-08T23:20:37.128Z,0.30
2018-01-08T23:23:04.735Z,0.28
2018-01-08T23:25:32.271Z,0.27
2018-01-08T23:27:59.785Z,0.19
2018-01-08T23:30:27.320Z,0.20
2018-01-08T23:32:54.979Z,0.23
2018-01-08T23:35:22.532Z,0.16
2018-01-08T23:37:50.236Z,0.13
2018-01-08T23:40:17.824Z,0.12
2018-01-08T23:42:45.408Z,0.13
2018-01-08T23:45:12.955Z,0.10
2018-01-08T23:47:40.552Z,0.07
2018-01-08T23:50:08.108Z,0.10
2018-01-08T23:52:35.624Z,0.12
2018-01-08T23:55:03.151Z,0.10
2018-01-08T23:57:30.749Z,0.07
2018-01-08T23:59:58.265Z,0.10
